This is the latest recevied weather packets stored in our database for station/object DL1NER. If no packets are shown the sender has not sent any weather packets the latest 10 day(s).
| Time | Temp. | Humidity | Pressure | Rain* | Wind** | Luminosity | Snow |
|---|---|---|---|---|---|---|---|
| 1777219812 | 16.67° C | 33% | 1022.6 hPa | 0 mm | - | 0 W/m² | - |
| 1777219212 | 16.67° C | 32% | 1022.7 hPa | 0 mm | - | 0 W/m² | - |
| 1777218611 | 17.22° C | 32% | 1022.7 hPa | 0 mm | - | 0 W/m² | - |
| 1777218011 | 17.22° C | 32% | 1022.6 hPa | 0 mm | - | 0 W/m² | - |
| 1777217411 | 17.22° C | 33% | 1022.7 hPa | 0 mm | - | 0 W/m² | - |
| 1777216811 | 17.22° C | 32% | 1022.8 hPa | 0 mm | - | 0 W/m² | - |
| 1777216211 | 17.22° C | 34% | 1022.7 hPa | 0 mm | - | 0 W/m² | - |
| 1777215611 | 17.22° C | 31% | 1022.8 hPa | 0 mm | - | 0 W/m² | - |
| 1777215011 | 17.22° C | 33% | 1022.9 hPa | 0 mm | - | 0 W/m² | - |
| 1777214412 | 17.22° C | 38% | 1022.9 hPa | 0 mm | - | 0 W/m² | - |
| 1777213811 | 16.11° C | 36% | 1022.9 hPa | 0 mm | - | 0 W/m² | - |
| 1777213211 | 15.56° C | 34% | 1023 hPa | 0 mm | - | 0 W/m² | - |
| 1777212612 | 15.56° C | 33% | 1023.1 hPa | 0 mm | - | 0 W/m² | - |
| 1777212012 | 16.11° C | 34% | 1023 hPa | 0 mm | - | 0 W/m² | - |
| 1777211412 | 16.67° C | 37% | 1023 hPa | 0 mm | - | 0 W/m² | - |
| 1777210811 | 16.67° C | 37% | 1023 hPa | 0 mm | - | 0 W/m² | - |
| 1777210212 | 17.78° C | 40% | 1023.1 hPa | 0 mm | - | 0 W/m² | - |
| 1777209611 | 17.22° C | 36% | 1023.1 hPa | 0 mm | - | 0 W/m² | - |
| 1777209012 | 16.67° C | 37% | 1023.2 hPa | 0 mm | - | 0 W/m² | - |
| 1777208411 | 16.67° C | 36% | 1023.3 hPa | 0 mm | - | 0 W/m² | - |
| 1777207812 | 17.22° C | 39% | 1023.3 hPa | 0 mm | - | 0 W/m² | - |
| 1777207211 | 17.22° C | 38% | 1023.4 hPa | 0 mm | - | 0 W/m² | - |
| 1777206611 | 16.67° C | 36% | 1023.3 hPa | 0 mm | - | 0 W/m² | - |
| 1777206011 | 16.11° C | 38% | 1023.4 hPa | 0 mm | - | 0 W/m² | - |
| 1777205411 | 16.11° C | 36% | 1023.5 hPa | 0 mm | - | 0 W/m² | - |
* Rain latest hour (hover to see other rain measurements)
** Current wind speed in m/s (hover to see current wind gust speed)